createdAt,value
2023-04-13T00:00:50.653Z,98113.19
2023-04-13T00:03:20.251Z,98116.53
2023-04-13T00:05:48.674Z,98118.47
2023-04-13T00:08:17.247Z,98105.44
2023-04-13T00:10:46.377Z,98099.28
2023-04-13T00:13:15.645Z,98101.94
2023-04-13T00:15:43.505Z,98091.47
2023-04-13T00:18:12.336Z,98100.94
2023-04-13T00:20:41.809Z,98088.06
2023-04-13T00:23:10.045Z,98089.66
2023-04-13T00:25:37.731Z,98100.09
2023-04-13T00:28:06.523Z,98095.78
2023-04-13T00:30:34.167Z,98094.09
2023-04-13T00:33:04.325Z,98089.88
2023-04-13T00:35:31.989Z,98089.78
2023-04-13T00:38:00.536Z,98088.06
2023-04-13T00:40:28.482Z,98090.56
2023-04-13T00:42:56.282Z,98083.59
2023-04-13T00:45:24.108Z,98084.53
2023-04-13T00:47:54.156Z,98085.34
2023-04-13T00:50:21.769Z,98087.06
2023-04-13T00:52:49.821Z,98090.59
2023-04-13T00:55:21.517Z,98091.47
2023-04-13T00:57:53.076Z,98095.72
2023-04-13T01:00:21.785Z,98086.22
2023-04-13T01:02:50.659Z,98087.94
2023-04-13T01:05:18.807Z,98089.56
2023-04-13T01:08:00.814Z,98091.22
2023-04-13T01:10:47.337Z,98090.38
2023-04-13T01:13:44.200Z,98090.13
2023-04-13T01:16:16.774Z,98094.41
2023-04-13T01:18:45.820Z,98087.75
2023-04-13T01:21:15.331Z,98086.94
2023-04-13T01:23:49.541Z,98083.56
2023-04-13T01:26:17.429Z,98081.78
2023-04-13T01:28:46.734Z,98079.22
2023-04-13T01:31:15.680Z,98080.16
2023-04-13T01:33:43.929Z,98077.47
2023-04-13T01:36:13.885Z,98076.53
2023-04-13T01:38:41.302Z,98075.78
2023-04-13T01:41:09.601Z,98074.97
2023-04-13T01:43:37.807Z,98088.78
2023-04-13T01:46:11.500Z,98087.91
2023-04-13T01:48:52.312Z,98087.06
2023-04-13T01:51:32.406Z,98082.72
2023-04-13T01:54:12.896Z,98080.97
2023-04-13T01:56:41.050Z,98082.69
2023-04-13T01:59:09.411Z,98084.41
2023-04-13T02:01:41.210Z,98080.03
2023-04-13T02:04:10.038Z,98078.41
2023-04-13T02:06:37.863Z,98086.97
2023-04-13T02:09:08.299Z,98081.75
2023-04-13T02:11:36.713Z,98083.56
2023-04-13T02:14:04.889Z,98074.09
2023-04-13T02:16:33.124Z,98076.72
2023-04-13T02:19:01.730Z,98081.03
2023-04-13T02:21:29.189Z,98092.22
2023-04-13T02:23:57.529Z,98085.31
2023-04-13T02:26:26.267Z,98088.78
2023-04-13T02:28:54.233Z,98086.94
2023-04-13T02:31:23.395Z,98091.12
2023-04-13T02:33:51.833Z,98087.75
2023-04-13T02:36:22.268Z,98087.84
2023-04-13T02:38:51.005Z,98083.31
2023-04-13T02:41:23.232Z,98079.97
2023-04-13T02:43:52.407Z,98079.16
2023-04-13T02:46:20.509Z,98075.00
2023-04-13T02:48:48.462Z,98074.09
2023-04-13T02:51:16.143Z,98076.75
2023-04-13T02:53:43.657Z,98062.81
2023-04-13T02:56:11.283Z,98062.09
2023-04-13T02:58:39.319Z,98072.47
2023-04-13T03:01:07.845Z,98070.69
2023-04-13T03:03:35.348Z,98068.09
2023-04-13T03:06:03.092Z,98072.41
2023-04-13T03:08:33.436Z,98079.47
2023-04-13T03:11:03.962Z,98074.25
2023-04-13T03:13:31.896Z,98072.31
2023-04-13T03:16:00.534Z,98072.44
2023-04-13T03:18:28.425Z,98077.66
2023-04-13T03:20:56.493Z,98073.28
2023-04-13T03:23:24.798Z,98076.75
2023-04-13T03:25:53.130Z,98075.94
2023-04-13T03:28:22.009Z,98075.06
2023-04-13T03:30:49.521Z,98072.50
2023-04-13T03:33:16.970Z,98068.97
2023-04-13T03:35:44.630Z,98070.75
2023-04-13T03:38:13.272Z,98063.75
2023-04-13T03:40:42.051Z,98069.69
2023-04-13T03:43:10.437Z,98076.75
2023-04-13T03:45:38.198Z,98064.69
2023-04-13T03:48:10.636Z,98065.53
2023-04-13T03:50:38.525Z,98063.78
2023-04-13T03:53:06.497Z,98058.72
2023-04-13T03:55:34.385Z,98056.28
2023-04-13T03:58:03.911Z,98057.03
2023-04-13T04:00:31.372Z,98063.25
2023-04-13T04:02:59.758Z,98050.22
2023-04-13T04:05:27.456Z,98060.59
2023-04-13T04:07:55.529Z,98056.19
2023-04-13T04:10:23.274Z,98065.87
2023-04-13T04:12:51.835Z,98068.56
2023-04-13T04:15:19.268Z,98072.87
2023-04-13T04:17:47.316Z,98073.72
2023-04-13T04:20:15.248Z,98072.94
2023-04-13T04:22:44.942Z,98078.94
2023-04-13T04:25:21.946Z,98070.19
2023-04-13T04:27:50.850Z,98069.41
2023-04-13T04:30:22.376Z,98065.00
2023-04-13T04:32:54.825Z,98071.91
2023-04-13T04:35:33.586Z,98074.53
2023-04-13T04:38:04.272Z,98081.50
2023-04-13T04:40:36.844Z,98079.75
2023-04-13T04:43:04.935Z,98074.53
2023-04-13T04:45:36.217Z,98081.56
2023-04-13T04:48:05.544Z,98078.84
2023-04-13T04:50:33.704Z,98084.91
2023-04-13T04:53:01.779Z,98088.37
2023-04-13T04:55:29.233Z,98091.91
2023-04-13T04:57:57.294Z,98079.78
2023-04-13T05:00:26.553Z,98081.50
2023-04-13T05:02:57.823Z,98076.06
2023-04-13T05:05:25.767Z,98081.25
2023-04-13T05:07:53.364Z,98077.78
2023-04-13T05:10:20.868Z,98077.81
2023-04-13T05:12:51.104Z,98076.06
2023-04-13T05:15:18.597Z,98080.31
2023-04-13T05:17:46.874Z,98080.25
2023-04-13T05:20:14.986Z,98083.53
2023-04-13T05:22:43.254Z,98092.03
2023-04-13T05:25:10.785Z,98083.59
2023-04-13T05:27:38.439Z,98093.97
2023-04-13T05:30:06.494Z,98090.44
2023-04-13T05:32:35.190Z,98090.38
2023-04-13T05:35:04.452Z,98089.53
2023-04-13T05:37:32.095Z,98090.34
2023-04-13T05:39:59.702Z,98082.53
2023-04-13T05:42:28.020Z,98079.22
2023-04-13T05:44:55.584Z,98081.66
2023-04-13T05:47:24.070Z,98081.66
2023-04-13T05:49:52.673Z,98082.13
2023-04-13T05:52:22.008Z,98084.88
2023-04-13T05:54:50.308Z,98079.41
2023-04-13T05:57:20.971Z,98082.69
2023-04-13T05:59:48.658Z,98082.91
2023-04-13T06:02:20.710Z,98079.38
2023-04-13T06:04:49.204Z,98085.22
2023-04-13T06:07:17.805Z,98073.28
2023-04-13T06:09:45.176Z,98085.63
2023-04-13T06:12:13.645Z,98095.47
2023-04-13T06:14:41.990Z,98079.87
2023-04-13T06:17:09.419Z,98082.84
2023-04-13T06:19:37.225Z,98084.19
2023-04-13T06:22:05.949Z,98077.47
2023-04-13T06:24:34.001Z,98082.84
2023-04-13T06:27:01.892Z,98092.84
2023-04-13T06:29:29.826Z,98090.81
2023-04-13T06:31:57.484Z,98092.38
2023-04-13T06:34:26.140Z,98088.56
2023-04-13T06:36:54.063Z,98088.97
2023-04-13T06:39:22.174Z,98091.12
2023-04-13T06:41:53.185Z,98102.16
2023-04-13T06:44:20.778Z,98092.53
2023-04-13T06:46:48.514Z,98091.25
2023-04-13T06:49:16.487Z,98092.97
2023-04-13T06:51:43.962Z,98099.22
2023-04-13T06:54:11.358Z,98105.59
2023-04-13T06:56:41.186Z,98114.88
2023-04-13T06:59:08.955Z,98101.22
2023-04-13T07:01:37.116Z,98102.06
2023-04-13T07:04:07.064Z,98104.91
2023-04-13T07:06:34.757Z,98094.91
2023-04-13T07:09:02.316Z,98099.91
2023-04-13T07:11:31.205Z,98105.38
2023-04-13T07:13:58.751Z,98114.50
2023-04-13T07:16:26.350Z,98119.88
2023-04-13T07:18:54.159Z,98115.91
2023-04-13T07:21:21.914Z,98119.22
2023-04-13T07:23:50.677Z,98107.59
2023-04-13T07:26:18.543Z,98121.13
2023-04-13T07:28:46.123Z,98126.19
2023-04-13T07:31:13.679Z,98117.19
2023-04-13T07:33:41.743Z,98129.69
2023-04-13T07:36:10.121Z,98121.88
2023-04-13T07:38:38.356Z,98108.81
2023-04-13T07:41:07.397Z,98121.38
2023-04-13T07:43:35.443Z,98115.19
2023-04-13T07:46:11.842Z,98120.56
2023-04-13T07:48:43.166Z,98129.22
2023-04-13T07:51:19.237Z,98122.78
2023-04-13T07:53:47.524Z,98122.91
2023-04-13T07:56:15.405Z,98130.59
2023-04-13T07:58:47.230Z,98109.38
2023-04-13T08:01:14.912Z,98126.25
2023-04-13T08:03:44.851Z,98124.81
2023-04-13T08:06:14.822Z,98124.75
2023-04-13T08:08:42.273Z,98126.53
2023-04-13T08:11:10.521Z,98114.81
2023-04-13T08:13:37.976Z,98111.94
2023-04-13T08:16:06.518Z,98118.28
2023-04-13T08:18:34.467Z,98115.66
2023-04-13T08:21:10.962Z,98117.66
2023-04-13T08:23:42.333Z,98112.59
2023-04-13T08:26:18.583Z,98112.13
2023-04-13T08:28:49.842Z,98119.56
2023-04-13T08:31:17.614Z,98121.75
2023-04-13T08:33:47.802Z,98124.50
2023-04-13T08:36:17.333Z,98123.59
2023-04-13T08:38:45.395Z,98109.31
2023-04-13T08:41:14.201Z,98119.84
2023-04-13T08:43:42.968Z,98112.75
2023-04-13T08:46:11.434Z,98112.53
2023-04-13T08:48:52.748Z,98110.47
2023-04-13T08:51:22.605Z,98108.34
2023-04-13T08:53:53.737Z,98103.06
2023-04-13T08:56:31.016Z,98110.09
2023-04-13T08:59:07.588Z,98107.38
2023-04-13T09:01:37.542Z,98106.75
2023-04-13T09:04:09.418Z,98105.41
2023-04-13T09:06:39.890Z,98098.78
2023-04-13T09:09:14.451Z,98107.88
2023-04-13T09:11:43.048Z,98102.13
2023-04-13T09:14:10.993Z,98097.66
2023-04-13T09:16:44.267Z,98094.25
2023-04-13T09:19:13.960Z,98093.72
2023-04-13T09:21:43.211Z,98093.38
2023-04-13T09:24:11.049Z,98099.75
2023-04-13T09:26:43.682Z,98104.47
2023-04-13T09:29:14.093Z,98105.53
2023-04-13T09:31:43.675Z,98101.63
2023-04-13T09:34:13.506Z,98095.34
2023-04-13T09:36:53.418Z,98102.28
2023-04-13T09:39:28.065Z,98098.28
2023-04-13T09:41:56.028Z,98094.16
2023-04-13T09:44:24.843Z,98095.81
2023-04-13T09:47:07.644Z,98102.63
2023-04-13T09:49:39.730Z,98105.91
2023-04-13T09:52:18.367Z,98099.12
2023-04-13T09:54:53.107Z,98098.81
2023-04-13T09:57:30.732Z,98089.78
2023-04-13T10:00:00.831Z,98091.25
2023-04-13T10:02:41.115Z,98087.75
2023-04-13T10:05:12.445Z,98095.09
2023-04-13T10:07:44.161Z,98094.25
2023-04-13T10:10:12.906Z,98088.22
2023-04-13T10:12:45.337Z,98097.81
2023-04-13T10:15:19.082Z,98099.44
2023-04-13T10:17:53.641Z,98105.47
2023-04-13T10:20:21.774Z,98102.50
2023-04-13T10:22:49.692Z,98104.72
2023-04-13T10:25:31.558Z,98107.16
2023-04-13T10:28:00.865Z,98101.50
2023-04-13T10:30:28.638Z,98097.59
2023-04-13T10:33:08.699Z,98088.47
2023-04-13T10:35:43.297Z,98095.63
2023-04-13T10:38:11.572Z,98102.81
2023-04-13T10:40:45.548Z,98097.88
2023-04-13T10:43:13.223Z,98098.00
2023-04-13T10:45:41.636Z,98100.31
2023-04-13T10:48:21.227Z,98098.00
2023-04-13T10:51:00.723Z,98095.37
2023-04-13T10:53:30.590Z,98086.13
2023-04-13T10:55:58.719Z,98087.63
2023-04-13T10:58:28.545Z,98089.03
2023-04-13T11:00:58.449Z,98080.72
2023-04-13T11:03:29.534Z,98079.75
2023-04-13T11:05:58.877Z,98069.12
2023-04-13T11:08:28.083Z,98075.66
2023-04-13T11:10:56.914Z,98079.72
2023-04-13T11:13:29.160Z,98079.28
2023-04-13T11:16:02.273Z,98073.59
2023-04-13T11:18:29.710Z,98064.56
2023-04-13T11:20:57.766Z,98073.25
2023-04-13T11:23:25.290Z,98059.69
2023-04-13T11:25:54.990Z,98058.78
2023-04-13T11:28:23.691Z,98052.44
2023-04-13T11:30:56.147Z,98059.09
2023-04-13T11:33:29.989Z,98059.47
2023-04-13T11:35:59.043Z,98047.69
2023-04-13T11:38:28.845Z,98050.84
2023-04-13T11:41:14.996Z,98038.91
2023-04-13T11:43:46.425Z,98046.38
2023-04-13T11:46:16.169Z,98047.38
2023-04-13T11:48:44.221Z,98047.69
2023-04-13T11:51:11.904Z,98044.09
2023-04-13T11:53:40.373Z,98041.34
2023-04-13T11:56:08.838Z,98045.66
2023-04-13T11:58:37.865Z,98044.81
2023-04-13T12:01:14.333Z,98049.19
2023-04-13T12:06:17.362Z,98036.50
2023-04-13T12:08:47.653Z,98042.19
2023-04-13T12:11:40.378Z,98035.53
2023-04-13T12:14:06.984Z,98031.53
2023-04-13T12:19:12.809Z,98012.00
2023-04-13T12:21:52.865Z,98018.50
2023-04-13T12:24:20.918Z,98022.00
2023-04-13T12:29:22.349Z,98023.38
2023-04-13T12:31:50.077Z,98017.84
2023-04-13T12:34:17.479Z,98005.09
2023-04-13T12:36:44.866Z,98001.38
2023-04-13T12:39:12.561Z,98003.63
2023-04-13T12:41:40.029Z,98005.13
2023-04-13T12:44:07.570Z,97995.13
2023-04-13T12:46:35.332Z,97991.03
2023-04-13T12:49:03.263Z,97998.75
2023-04-13T12:51:31.660Z,97991.28
2023-04-13T12:53:59.326Z,97989.66
2023-04-13T12:56:27.064Z,97994.41
2023-04-13T12:58:54.449Z,97988.50
2023-04-13T13:01:22.370Z,97983.97
2023-04-13T13:03:49.962Z,97990.25
2023-04-13T13:06:17.411Z,97987.53
2023-04-13T13:08:45.017Z,97986.47
2023-04-13T13:11:12.433Z,97977.91
2023-04-13T13:13:39.844Z,97979.31
2023-04-13T13:16:07.845Z,97986.81
2023-04-13T13:18:49.154Z,97987.78
2023-04-13T13:21:18.741Z,97990.94
2023-04-13T13:23:46.377Z,97989.78
2023-04-13T13:26:24.109Z,97986.00
2023-04-13T13:28:52.826Z,97981.59
2023-04-13T13:31:20.358Z,97970.41
2023-04-13T13:33:47.749Z,97973.69
2023-04-13T13:36:15.555Z,97970.56
2023-04-13T13:38:43.504Z,97962.12
2023-04-13T13:41:11.523Z,97961.81
2023-04-13T13:43:39.630Z,97964.47
2023-04-13T13:46:07.066Z,97961.44
2023-04-13T13:48:34.648Z,97961.50
2023-04-13T13:51:06.243Z,97961.84
2023-04-13T13:53:34.993Z,97949.94
2023-04-13T13:56:06.011Z,97957.56
2023-04-13T13:58:33.416Z,97955.22
2023-04-13T14:01:00.804Z,97956.69
2023-04-13T14:03:28.568Z,97948.38
2023-04-13T14:05:56.267Z,97944.91
2023-04-13T14:08:23.632Z,97954.53
2023-04-13T14:10:51.388Z,97951.13
2023-04-13T14:13:18.800Z,97951.63
2023-04-13T14:15:47.314Z,97941.59
2023-04-13T14:18:15.004Z,97947.03
2023-04-13T14:20:43.533Z,97953.03
2023-04-13T14:23:10.987Z,97953.91
2023-04-13T14:25:41.070Z,97954.12
2023-04-13T14:28:09.338Z,97954.03
2023-04-13T14:30:39.377Z,97952.75
2023-04-13T14:33:07.711Z,97947.53
2023-04-13T14:35:35.530Z,97950.47
2023-04-13T14:38:03.018Z,97947.47
2023-04-13T14:40:31.791Z,97950.81
2023-04-13T14:42:59.149Z,97955.56
2023-04-13T14:45:27.492Z,97958.16
2023-04-13T14:47:55.247Z,97958.37
2023-04-13T14:50:22.736Z,97963.63
2023-04-13T14:52:50.404Z,97956.03
2023-04-13T14:55:18.306Z,97959.91
2023-04-13T14:57:46.032Z,97961.56
2023-04-13T15:00:26.562Z,97955.94
2023-04-13T15:02:55.533Z,97964.97
2023-04-13T15:05:23.664Z,97968.41
2023-04-13T15:07:51.310Z,97967.25
2023-04-13T15:10:19.525Z,97971.34
2023-04-13T15:12:48.178Z,97971.25
2023-04-13T15:15:15.869Z,97966.44
2023-04-13T15:17:43.695Z,97971.44
2023-04-13T15:20:12.120Z,97972.00
2023-04-13T15:22:39.541Z,97970.72
2023-04-13T15:25:07.491Z,97969.50
2023-04-13T15:27:34.910Z,97973.37
2023-04-13T15:30:04.100Z,97981.69
2023-04-13T15:32:34.205Z,97986.38
2023-04-13T15:35:02.170Z,97978.06
2023-04-13T15:37:29.570Z,97981.06
2023-04-13T15:39:57.241Z,97980.94
2023-04-13T15:42:26.126Z,97974.53
2023-04-13T15:44:55.196Z,97982.31
2023-04-13T15:47:24.342Z,97980.50
2023-04-13T15:49:51.747Z,97976.00
2023-04-13T15:52:19.129Z,97976.00
2023-04-13T15:54:47.013Z,97975.66
2023-04-13T15:57:15.766Z,97980.31
2023-04-13T15:59:43.670Z,97972.19
2023-04-13T16:02:13.156Z,97968.91
2023-04-13T16:04:41.279Z,97972.19
2023-04-13T16:07:13.443Z,97966.37
2023-04-13T16:09:47.532Z,97970.38
2023-04-13T16:12:14.863Z,97965.53
2023-04-13T16:14:45.594Z,97968.91
2023-04-13T16:17:15.040Z,97965.31
2023-04-13T16:19:46.974Z,97962.62
2023-04-13T16:22:17.194Z,97966.25
2023-04-13T16:24:45.113Z,97960.97
2023-04-13T16:27:13.180Z,97963.41
2023-04-13T16:29:42.145Z,97973.47
2023-04-13T16:32:10.133Z,97968.13
2023-04-13T16:34:38.366Z,97963.84
2023-04-13T16:37:05.824Z,97966.31
2023-04-13T16:39:34.268Z,97962.03
2023-04-13T16:42:01.839Z,97959.44
2023-04-13T16:44:29.210Z,97957.94
2023-04-13T16:46:57.678Z,97958.09
2023-04-13T16:49:25.618Z,97960.44
2023-04-13T16:51:53.120Z,97963.81
2023-04-13T16:54:21.201Z,97962.16
2023-04-13T16:56:49.002Z,97962.94
2023-04-13T16:59:17.219Z,97966.37
2023-04-13T17:01:46.630Z,97961.34
2023-04-13T17:04:14.356Z,97964.75
2023-04-13T17:06:42.604Z,97978.59
2023-04-13T17:09:10.634Z,97976.31
2023-04-13T17:11:38.167Z,97987.63
2023-04-13T17:14:05.807Z,97976.41
2023-04-13T17:16:33.973Z,97976.97
2023-04-13T17:19:01.951Z,97988.09
2023-04-13T17:21:29.701Z,97987.28
2023-04-13T17:23:59.049Z,97995.50
2023-04-13T17:26:28.022Z,97983.63
2023-04-13T17:28:55.560Z,97987.28
2023-04-13T17:31:23.560Z,97971.22
2023-04-13T17:33:51.263Z,97980.06
2023-04-13T17:36:19.485Z,97984.28
2023-04-13T17:38:47.541Z,97982.66
2023-04-13T17:41:15.463Z,97979.25
2023-04-13T17:43:43.834Z,97991.97
2023-04-13T17:46:13.953Z,97994.28
2023-04-13T17:48:42.182Z,98005.81
2023-04-13T17:51:13.143Z,97997.66
2023-04-13T17:53:42.115Z,98002.16
2023-04-13T17:56:21.947Z,98007.25
2023-04-13T17:58:49.923Z,98009.97
2023-04-13T18:01:17.903Z,98020.31
2023-04-13T18:03:46.463Z,98018.47
2023-04-13T18:06:14.471Z,98014.25
2023-04-13T18:08:42.342Z,98014.91
2023-04-13T18:11:10.600Z,98019.47
2023-04-13T18:13:39.093Z,98021.16
2023-04-13T18:16:07.173Z,98027.22
2023-04-13T18:18:35.563Z,98027.37
2023-04-13T18:21:07.865Z,98025.69
2023-04-13T18:23:36.509Z,98021.06
2023-04-13T18:26:07.637Z,98012.16
2023-04-13T18:28:37.356Z,98010.63
2023-04-13T18:31:07.324Z,98010.47
2023-04-13T18:33:35.874Z,98011.00
2023-04-13T18:36:03.668Z,98013.88
2023-04-13T18:38:34.903Z,98009.72
2023-04-13T18:41:02.839Z,98007.28
2023-04-13T18:43:31.050Z,98005.59
2023-04-13T18:46:00.761Z,98004.97
2023-04-13T18:48:32.280Z,98000.38
2023-04-13T18:51:02.247Z,98005.00
2023-04-13T18:53:30.606Z,98006.72
2023-04-13T18:55:59.316Z,98010.75
2023-04-13T18:58:27.835Z,98014.06
2023-04-13T19:00:56.490Z,98013.41
2023-04-13T19:03:25.075Z,98011.13
2023-04-13T19:05:53.740Z,98010.25
2023-04-13T19:08:23.084Z,98009.41
2023-04-13T19:10:52.006Z,98006.66
2023-04-13T19:13:21.189Z,98003.94
2023-04-13T19:15:49.896Z,97998.91
2023-04-13T19:18:18.653Z,98009.31
2023-04-13T19:20:47.158Z,98000.47
2023-04-13T19:23:15.259Z,97999.22
2023-04-13T19:25:43.870Z,98005.94
2023-04-13T19:28:15.132Z,97997.72
2023-04-13T19:30:43.649Z,98000.12
2023-04-13T19:33:12.311Z,97985.34
2023-04-13T19:35:42.579Z,97987.19
2023-04-13T19:38:12.228Z,97987.72
2023-04-13T19:40:41.035Z,97980.84
2023-04-13T19:43:09.137Z,97970.06
2023-04-13T19:45:37.234Z,97965.84
2023-04-13T19:48:09.165Z,97963.88
2023-04-13T19:50:37.107Z,97957.53
2023-04-13T19:53:05.894Z,97956.34
2023-04-13T19:55:34.137Z,97959.91
2023-04-13T19:58:02.481Z,97951.31
2023-04-13T20:00:32.951Z,97950.53
2023-04-13T20:03:04.889Z,97946.00
2023-04-13T20:05:33.188Z,97948.88
2023-04-13T20:08:02.020Z,97943.03
2023-04-13T20:10:31.923Z,97943.94
2023-04-13T20:12:59.892Z,97946.62
2023-04-13T20:15:31.251Z,97948.13
2023-04-13T20:17:59.022Z,97937.63
2023-04-13T20:20:30.041Z,97934.75
2023-04-13T20:22:57.975Z,97937.94
2023-04-13T20:25:26.494Z,97940.97
2023-04-13T20:27:54.903Z,97929.03
2023-04-13T20:30:22.937Z,97928.22
2023-04-13T20:32:52.533Z,97927.97
2023-04-13T20:35:21.369Z,97916.47
2023-04-13T20:37:51.387Z,97911.31
2023-04-13T20:40:19.319Z,97912.75
2023-04-13T20:42:47.177Z,97910.09
2023-04-13T20:45:15.503Z,97910.66
2023-04-13T20:47:43.550Z,97906.31
2023-04-13T20:50:12.178Z,97911.28
2023-04-13T20:52:43.813Z,97902.72
2023-04-13T20:55:14.827Z,97905.31
2023-04-13T20:57:43.532Z,97910.28
2023-04-13T21:00:15.368Z,97903.06
2023-04-13T21:02:44.069Z,97900.75
2023-04-13T21:05:12.460Z,97898.09
2023-04-13T21:07:41.838Z,97886.12
2023-04-13T21:10:51.481Z,97901.25
2023-04-13T21:13:19.333Z,97897.72
2023-04-13T21:15:47.293Z,97900.75
2023-04-13T21:18:14.719Z,97901.75
2023-04-13T21:21:13.162Z,97892.88
2023-04-13T21:23:41.829Z,97893.91
2023-04-13T21:26:09.253Z,97903.66
2023-04-13T21:28:36.620Z,97907.13
2023-04-13T21:31:04.285Z,97915.09
2023-04-13T21:33:31.636Z,97926.28
2023-04-13T21:36:51.414Z,97935.72
2023-04-13T21:38:46.619Z,97927.13
2023-04-13T21:41:17.740Z,97921.81
2023-04-13T21:43:45.304Z,97906.41
2023-04-13T21:46:14.577Z,97886.78
2023-04-13T21:48:42.424Z,97874.72
2023-04-13T21:51:10.166Z,97874.03
2023-04-13T21:53:38.478Z,97869.16
2023-04-13T21:56:06.070Z,97856.78
2023-04-13T21:58:41.624Z,97860.56
2023-04-13T22:01:09.914Z,97859.09
2023-04-13T22:03:39.246Z,97868.44
2023-04-13T22:06:07.943Z,97857.09
2023-04-13T22:08:35.609Z,97859.53
2023-04-13T22:11:03.332Z,97849.94
2023-04-13T22:13:30.741Z,97848.12
2023-04-13T22:15:58.327Z,97856.75
2023-04-13T22:18:26.832Z,97854.81
2023-04-13T22:20:54.265Z,97847.19
2023-04-13T22:23:21.667Z,97847.97
2023-04-13T22:25:53.958Z,97853.94
2023-04-13T22:28:21.295Z,97842.28
2023-04-13T22:30:48.983Z,97834.38
2023-04-13T22:33:16.500Z,97837.50
2023-04-13T22:35:44.021Z,97835.66
2023-04-13T22:38:11.971Z,97831.50
2023-04-13T22:40:40.522Z,97836.87
2023-04-13T22:43:07.919Z,97821.03
2023-04-13T22:45:35.806Z,97826.78
2023-04-13T22:48:03.212Z,97816.88
2023-04-13T22:50:30.871Z,97806.97
2023-04-13T22:52:58.497Z,97788.00
2023-04-13T22:55:27.412Z,97787.41
2023-04-13T22:57:54.762Z,97791.25
2023-04-13T23:00:22.437Z,97784.91
2023-04-13T23:02:51.625Z,97782.72
2023-04-13T23:05:19.303Z,97773.69
2023-04-13T23:07:46.938Z,97775.59
2023-04-13T23:10:16.473Z,97787.62
2023-04-13T23:12:44.961Z,97770.41
2023-04-13T23:15:13.391Z,97767.78
2023-04-13T23:17:40.863Z,97772.53
2023-04-13T23:20:08.807Z,97764.66
2023-04-13T23:22:37.250Z,97749.59
2023-04-13T23:25:05.421Z,97738.66
2023-04-13T23:27:32.771Z,97729.22
2023-04-13T23:30:00.411Z,97730.59
2023-04-13T23:32:27.882Z,97712.50
2023-04-13T23:34:55.410Z,97730.00
2023-04-13T23:37:23.070Z,97729.16
2023-04-13T23:39:50.453Z,97726.19
2023-04-13T23:42:17.850Z,97729.69
2023-04-13T23:44:45.738Z,97738.63
2023-04-13T23:47:13.454Z,97734.22
2023-04-13T23:49:41.643Z,97738.34
2023-04-13T23:52:09.946Z,97730.75
2023-04-13T23:54:37.314Z,97714.13
2023-04-13T23:57:04.716Z,97703.62
2023-04-13T23:59:32.435Z,97694.09
